sensor_id;sensor_type;location;lat;lon;timestamp;pressure;altitude;pressure_sealevel;temperature;humidity
45247;BME280;31529;51.158;7.354;2023-05-11T00:00:10;97725.56;;;13.79;100.00
45247;BME280;31529;51.158;7.354;2023-05-11T00:00:42;97717.53;;;13.79;100.00
45247;BME280;31529;51.158;7.354;2023-05-11T00:01:14;97720.97;;;13.80;100.00
45247;BME280;31529;51.158;7.354;2023-05-11T00:01:45;97714.84;;;13.79;100.00
45247;BME280;31529;51.158;7.354;2023-05-11T00:02:17;97717.53;;;13.79;100.00
45247;BME280;31529;51.158;7.354;2023-05-11T00:02:48;97718.31;;;13.80;100.00
45247;BME280;31529;51.158;7.354;2023-05-11T00:03:19;97630.53;;;13.23;100.00
45247;BME280;31529;51.158;7.354;2023-05-11T00:03:50;97718.00;;;13.81;100.00
45247;BME280;31529;51.158;7.354;2023-05-11T00:04:21;97718.00;;;13.81;100.00
45247;BME280;31529;51.158;7.354;2023-05-11T00:04:52;97719.88;;;13.81;100.00
45247;BME280;31529;51.158;7.354;2023-05-11T00:05:24;97720.97;;;13.80;100.00
45247;BME280;31529;51.158;7.354;2023-05-11T00:05:55;97715.63;;;13.80;100.00
45247;BME280;31529;51.158;7.354;2023-05-11T00:06:26;97716.72;;;13.79;100.00
45247;BME280;31529;51.158;7.354;2023-05-11T00:06:57;97723.66;;;13.80;100.00
45247;BME280;31529;51.158;7.354;2023-05-11T00:07:28;97716.72;;;13.79;100.00
45247;BME280;31529;51.158;7.354;2023-05-11T00:07:59;97714.03;;;13.79;100.00
45247;BME280;31529;51.158;7.354;2023-05-11T00:08:30;97716.72;;;13.79;100.00
45247;BME280;31529;51.158;7.354;2023-05-11T00:09:02;97724.75;;;13.79;100.00
45247;BME280;31529;51.158;7.354;2023-05-11T00:09:33;97719.09;;;13.80;100.00
45247;BME280;31529;51.158;7.354;2023-05-11T00:10:05;97713.72;;;13.80;100.00
45247;BME280;31529;51.158;7.354;2023-05-11T00:10:36;97718.00;;;13.81;100.00
45247;BME280;31529;51.158;7.354;2023-05-11T00:11:08;97712.34;;;13.83;100.00
45247;BME280;31529;51.158;7.354;2023-05-11T00:11:39;97716.56;;;13.84;100.00
45247;BME280;31529;51.158;7.354;2023-05-11T00:12:10;97726.22;;;13.85;100.00
45247;BME280;31529;51.158;7.354;2023-05-11T00:12:42;97715.50;;;13.85;100.00
45247;BME280;31529;51.158;7.354;2023-05-11T00:13:14;97713.28;;;13.87;100.00
45247;BME280;31529;51.158;7.354;2023-05-11T00:13:45;97720.22;;;13.88;100.00
45247;BME280;31529;51.158;7.354;2023-05-11T00:14:16;97712.94;;;13.89;100.00
45247;BME280;31529;51.158;7.354;2023-05-11T00:14:47;97716.44;;;13.89;100.00
45247;BME280;31529;51.158;7.354;2023-05-11T00:15:18;97712.66;;;13.90;100.00
45247;BME280;31529;51.158;7.354;2023-05-11T00:15:49;97714.25;;;13.91;100.00
45247;BME280;31529;51.158;7.354;2023-05-11T00:16:21;97710.44;;;13.92;100.00
45247;BME280;31529;51.158;7.354;2023-05-11T00:16:52;97720.09;;;13.93;100.00
45247;BME280;31529;51.158;7.354;2023-05-11T00:17:23;97717.41;;;13.93;100.00
45247;BME280;31529;51.158;7.354;2023-05-11T00:17:54;97711.25;;;13.93;100.00
45247;BME280;31529;51.158;7.354;2023-05-11T00:18:25;97712.03;;;13.93;100.00
45247;BME280;31529;51.158;7.354;2023-05-11T00:18:56;97713.59;;;13.94;100.00
45247;BME280;31529;51.158;7.354;2023-05-11T00:19:28;97710.91;;;13.94;100.00
45247;BME280;31529;51.158;7.354;2023-05-11T00:20:01;97714.41;;;13.95;100.00
45247;BME280;31529;51.158;7.354;2023-05-11T00:20:32;97716.28;;;13.94;100.00
45247;BME280;31529;51.158;7.354;2023-05-11T00:21:03;97717.88;;;13.95;100.00
45247;BME280;31529;51.158;7.354;2023-05-11T00:21:34;97713.59;;;13.94;100.00
45247;BME280;31529;51.158;7.354;2023-05-11T00:22:06;97717.88;;;13.95;100.00
45247;BME280;31529;51.158;7.354;2023-05-11T00:22:37;97719.78;;;13.95;100.00
45247;BME280;31529;51.158;7.354;2023-05-11T00:23:08;97720.56;;;13.95;100.00
45247;BME280;31529;51.158;7.354;2023-05-11T00:23:40;97714.41;;;13.95;100.00
45247;BME280;31529;51.158;7.354;2023-05-11T00:24:11;97721.34;;;13.96;100.00
45247;BME280;31529;51.158;7.354;2023-05-11T00:24:42;97715.97;;;13.96;100.00
45247;BME280;31529;51.158;7.354;2023-05-11T00:25:13;97722.16;;;13.96;100.00
45247;BME280;31529;51.158;7.354;2023-05-11T00:25:45;97712.50;;;13.95;100.00
45247;BME280;31529;51.158;7.354;2023-05-11T00:26:16;97716.78;;;13.96;100.00
45247;BME280;31529;51.158;7.354;2023-05-11T00:26:47;97719.47;;;13.96;100.00
45247;BME280;31529;51.158;7.354;2023-05-11T00:27:18;97715.97;;;13.96;100.00
45247;BME280;31529;51.158;7.354;2023-05-11T00:27:49;97719.47;;;13.96;100.00
45247;BME280;31529;51.158;7.354;2023-05-11T00:28:20;97713.00;;;13.97;100.00
45247;BME280;31529;51.158;7.354;2023-05-11T00:28:52;97726.41;;;13.97;100.00
45247;BME280;31529;51.158;7.354;2023-05-11T00:29:23;97719.94;;;13.98;100.00
45247;BME280;31529;51.158;7.354;2023-05-11T00:29:55;97713.47;;;13.99;100.00
45247;BME280;31529;51.158;7.354;2023-05-11T00:30:26;97718.84;;;13.99;100.00
45247;BME280;31529;51.158;7.354;2023-05-11T00:30:57;97714.25;;;14.00;100.00
45247;BME280;31529;51.158;7.354;2023-05-11T00:31:28;97719.63;;;14.00;100.00
45247;BME280;31529;51.158;7.354;2023-05-11T00:31:59;97719.63;;;14.00;100.00
45247;BME280;31529;51.158;7.354;2023-05-11T00:32:30;97723.09;;;14.00;100.00
45247;BME280;31529;51.158;7.354;2023-05-11T00:33:02;97721.50;;;13.99;100.00
45247;BME280;31529;51.158;7.354;2023-05-11T00:33:33;97721.50;;;13.99;100.00
45247;BME280;31529;51.158;7.354;2023-05-11T00:34:04;97725.31;;;13.98;100.00
45247;BME280;31529;51.158;7.354;2023-05-11T00:34:35;97725.31;;;13.98;100.00
45247;BME280;31529;51.158;7.354;2023-05-11T00:35:06;97722.63;;;13.98;100.00
45247;BME280;31529;51.158;7.354;2023-05-11T00:35:38;97722.63;;;13.98;100.00
45247;BME280;31529;51.158;7.354;2023-05-11T00:36:09;97720.25;;;13.97;100.00
45247;BME280;31529;51.158;7.354;2023-05-11T00:36:40;97717.56;;;13.97;100.00
45247;BME280;31529;51.158;7.354;2023-05-11T00:37:12;97722.94;;;13.97;100.00
45247;BME280;31529;51.158;7.354;2023-05-11T00:37:43;97724.03;;;13.96;100.00
45247;BME280;31529;51.158;7.354;2023-05-11T00:38:15;97723.25;;;13.95;100.00
45247;BME280;31529;51.158;7.354;2023-05-11T00:38:46;97720.56;;;13.95;100.00
45247;BME280;31529;51.158;7.354;2023-05-11T00:39:17;97720.56;;;13.95;100.00
45247;BME280;31529;51.158;7.354;2023-05-11T00:39:48;97721.66;;;13.94;100.00
45247;BME280;31529;51.158;7.354;2023-05-11T00:40:19;97716.28;;;13.94;100.00
45247;BME280;31529;51.158;7.354;2023-05-11T00:40:50;97713.47;;;13.91;100.00
45247;BME280;31529;51.158;7.354;2023-05-11T00:41:22;97719.59;;;13.91;100.00
45247;BME280;31529;51.158;7.354;2023-05-11T00:41:53;97718.81;;;13.91;100.00
45247;BME280;31529;51.158;7.354;2023-05-11T00:42:24;97718.50;;;13.92;100.00
45247;BME280;31529;51.158;7.354;2023-05-11T00:42:55;97714.25;;;13.91;100.00
45247;BME280;31529;51.158;7.354;2023-05-11T00:43:26;97713.47;;;13.91;100.00
45247;BME280;31529;51.158;7.354;2023-05-11T00:43:57;97723.38;;;13.90;100.00
45247;BME280;31529;51.158;7.354;2023-05-11T00:44:28;97716.44;;;13.89;100.00
45247;BME280;31529;51.158;7.354;2023-05-11T00:44:59;97612.53;;;13.15;100.00
45247;BME280;31529;51.158;7.354;2023-05-11T00:45:31;97715.97;;;13.87;100.00
45247;BME280;31529;51.158;7.354;2023-05-11T00:46:02;97723.69;;;13.89;100.00
45247;BME280;31529;51.158;7.354;2023-05-11T00:46:34;97720.22;;;13.88;100.00
45247;BME280;31529;51.158;7.354;2023-05-11T00:47:06;97718.50;;;13.92;100.00
45247;BME280;31529;51.158;7.354;2023-05-11T00:47:38;97717.41;;;13.93;100.00
45247;BME280;31529;51.158;7.354;2023-05-11T00:48:09;97718.97;;;13.94;100.00
45247;BME280;31529;51.158;7.354;2023-05-11T00:48:41;97720.56;;;13.95;100.00
45247;BME280;31529;51.158;7.354;2023-05-11T00:49:12;97715.19;;;13.95;100.00
45247;BME280;31529;51.158;7.354;2023-05-11T00:49:46;97718.66;;;13.96;100.00
45247;BME280;31529;51.158;7.354;2023-05-11T00:50:19;97717.56;;;13.97;100.00
45247;BME280;31529;51.158;7.354;2023-05-11T00:50:51;97711.44;;;13.96;100.00
45247;BME280;31529;51.158;7.354;2023-05-11T00:51:22;97720.25;;;13.97;100.00
45247;BME280;31529;51.158;7.354;2023-05-11T00:51:53;97714.09;;;13.96;100.00
45247;BME280;31529;51.158;7.354;2023-05-11T00:52:24;97716.78;;;13.96;100.00
45247;BME280;31529;51.158;7.354;2023-05-11T00:52:55;97715.97;;;13.96;100.00
45247;BME280;31529;51.158;7.354;2023-05-11T00:53:27;97704.47;;;13.95;100.00
45247;BME280;31529;51.158;7.354;2023-05-11T00:53:58;97716.78;;;13.96;100.00
45247;BME280;31529;51.158;7.354;2023-05-11T00:54:30;97716.78;;;13.96;100.00
45247;BME280;31529;51.158;7.354;2023-05-11T00:55:01;97707.63;;;13.97;100.00
45247;BME280;31529;51.158;7.354;2023-05-11T00:55:32;97717.56;;;13.97;100.00
45247;BME280;31529;51.158;7.354;2023-05-11T00:56:04;97711.44;;;13.96;100.00
45247;BME280;31529;51.158;7.354;2023-05-11T00:56:35;97709.53;;;13.97;100.00
45247;BME280;31529;51.158;7.354;2023-05-11T00:57:06;97714.09;;;13.96;100.00
45247;BME280;31529;51.158;7.354;2023-05-11T00:57:38;97714.88;;;13.97;100.00
45247;BME280;31529;51.158;7.354;2023-05-11T00:58:09;97723.72;;;13.97;100.00
45247;BME280;31529;51.158;7.354;2023-05-11T00:58:40;97720.72;;;13.99;100.00
45247;BME280;31529;51.158;7.354;2023-05-11T00:59:11;97714.59;;;13.98;100.00
45247;BME280;31529;51.158;7.354;2023-05-11T00:59:43;97714.59;;;13.98;100.00
45247;BME280;31529;51.158;7.354;2023-05-11T01:00:14;97718.34;;;13.97;100.00
45247;BME280;31529;51.158;7.354;2023-05-11T01:00:45;97716.16;;;13.99;100.00
45247;BME280;31529;51.158;7.354;2023-05-11T01:01:20;97715.38;;;13.99;100.00
45247;BME280;31529;51.158;7.354;2023-05-11T01:01:52;97719.63;;;14.00;100.00
45247;BME280;31529;51.158;7.354;2023-05-11T01:02:23;97712.38;;;14.00;100.00
45247;BME280;31529;51.158;7.354;2023-05-11T01:02:54;97716.63;;;14.01;100.00
45247;BME280;31529;51.158;7.354;2023-05-11T01:03:25;97715.84;;;14.01;100.00
45247;BME280;31529;51.158;7.354;2023-05-11T01:03:56;97715.06;;;14.00;100.00
45247;BME280;31529;51.158;7.354;2023-05-11T01:04:27;97717.75;;;14.00;100.00
45247;BME280;31529;51.158;7.354;2023-05-11T01:04:59;97718.22;;;14.02;100.00
45247;BME280;31529;51.158;7.354;2023-05-11T01:05:43;97718.53;;;14.01;100.00
45247;BME280;31529;51.158;7.354;2023-05-11T01:06:20;97723.59;;;14.02;100.00
45247;BME280;31529;51.158;7.354;2023-05-11T01:08:47;97721.69;;;14.03;100.00
45247;BME280;31529;51.158;7.354;2023-05-11T01:13:36;97719.19;;;14.06;100.00
45247;BME280;31529;51.158;7.354;2023-05-11T01:14:13;97715.72;;;14.06;100.00
45247;BME280;31529;51.158;7.354;2023-05-11T01:14:53;97713.03;;;14.06;100.00
45247;BME280;31529;51.158;7.354;2023-05-11T01:15:32;97719.47;;;14.05;100.00
45247;BME280;31529;51.158;7.354;2023-05-11T01:16:20;97719.97;;;14.07;100.00
45247;BME280;31529;51.158;7.354;2023-05-11T01:16:58;97722.16;;;14.05;100.00
45247;BME280;31529;51.158;7.354;2023-05-11T01:19:02;97722.00;;;14.01;100.00
45247;BME280;31529;51.158;7.354;2023-05-11T01:19:45;97725.31;;;13.98;100.00
45247;BME280;31529;51.158;7.354;2023-05-11T01:20:24;97724.84;;;13.96;100.00
45247;BME280;31529;51.158;7.354;2023-05-11T01:20:58;97720.88;;;13.94;100.00
45247;BME280;31529;51.158;7.354;2023-05-11T01:21:31;97729.22;;;13.92;100.00
45247;BME280;31529;51.158;7.354;2023-05-11T01:25:04;97719.88;;;13.81;100.00
45247;BME280;31529;51.158;7.354;2023-05-11T01:27:11;97729.47;;;13.73;100.00
45247;BME280;31529;51.158;7.354;2023-05-11T01:30:59;97720.28;;;13.65;100.00
45247;BME280;31529;51.158;7.354;2023-05-11T01:31:41;97729.44;;;13.64;100.00
45247;BME280;31529;51.158;7.354;2023-05-11T01:32:21;97722.97;;;13.65;100.00
45247;BME280;31529;51.158;7.354;2023-05-11T01:32:57;97722.97;;;13.65;100.00
45247;BME280;31529;51.158;7.354;2023-05-11T01:33:32;97728.31;;;13.65;100.00
45247;BME280;31529;51.158;7.354;2023-05-11T01:34:08;97718.41;;;13.66;100.00
45247;BME280;31529;51.158;7.354;2023-05-11T01:34:46;97718.41;;;13.66;100.00
45247;BME280;31529;51.158;7.354;2023-05-11T01:35:21;97721.41;;;13.64;100.00
45247;BME280;31529;51.158;7.354;2023-05-11T01:35:58;97725.97;;;13.64;100.00
45247;BME280;31529;51.158;7.354;2023-05-11T01:36:33;97718.72;;;13.64;100.00
45247;BME280;31529;51.158;7.354;2023-05-11T01:37:09;97721.41;;;13.64;100.00
45247;BME280;31529;51.158;7.354;2023-05-11T01:37:50;97721.41;;;13.64;100.00
45247;BME280;31529;51.158;7.354;2023-05-11T01:38:24;97722.97;;;13.65;100.00
45247;BME280;31529;51.158;7.354;2023-05-11T01:39:07;97719.50;;;13.65;100.00
45247;BME280;31529;51.158;7.354;2023-05-11T01:39:42;97722.19;;;13.65;100.00
45247;BME280;31529;51.158;7.354;2023-05-11T01:40:27;97728.31;;;13.65;100.00
45247;BME280;31529;51.158;7.354;2023-05-11T01:41:06;97725.97;;;13.64;100.00
45247;BME280;31529;51.158;7.354;2023-05-11T01:41:41;97727.84;;;13.63;100.00
45247;BME280;31529;51.158;7.354;2023-05-11T01:42:19;97729.75;;;13.63;100.00
45247;BME280;31529;51.158;7.354;2023-05-11T01:42:57;97725.16;;;13.63;100.00
45247;BME280;31529;51.158;7.354;2023-05-11T01:43:31;97729.75;;;13.63;100.00
45247;BME280;31529;51.158;7.354;2023-05-11T01:44:06;97728.16;;;13.62;100.00
45247;BME280;31529;51.158;7.354;2023-05-11T01:44:41;97727.06;;;13.63;100.00
45247;BME280;31529;51.158;7.354;2023-05-11T01:45:14;97726.75;;;13.64;100.00
45247;BME280;31529;51.158;7.354;2023-05-11T01:45:47;97725.16;;;13.63;100.00
45247;BME280;31529;51.158;7.354;2023-05-11T01:46:20;97730.53;;;13.63;100.00
45247;BME280;31529;51.158;7.354;2023-05-11T01:46:56;97719.81;;;13.63;100.00
45247;BME280;31529;51.158;7.354;2023-05-11T01:47:31;97724.69;;;13.61;100.00
45247;BME280;31529;51.158;7.354;2023-05-11T01:48:05;97728.97;;;13.62;100.00
45247;BME280;31529;51.158;7.354;2023-05-11T01:48:39;97726.88;;;13.59;100.00
45247;BME280;31529;51.158;7.354;2023-05-11T01:49:14;97732.72;;;13.61;100.00
45247;BME280;31529;51.158;7.354;2023-05-11T01:49:47;97726.59;;;13.61;100.00
45247;BME280;31529;51.158;7.354;2023-05-11T01:50:21;97727.38;;;13.61;100.00
45247;BME280;31529;51.158;7.354;2023-05-11T01:50:55;97725.81;;;13.60;100.00
45247;BME280;31529;51.158;7.354;2023-05-11T01:51:32;97730.34;;;13.60;100.00
45247;BME280;31529;51.158;7.354;2023-05-11T01:52:07;97725.81;;;13.60;100.00
45247;BME280;31529;51.158;7.354;2023-05-11T01:52:40;97726.59;;;13.61;100.00
45247;BME280;31529;51.158;7.354;2023-05-11T01:53:12;97724.69;;;13.61;100.00
45247;BME280;31529;51.158;7.354;2023-05-11T01:53:47;97719.31;;;13.61;100.00
45247;BME280;31529;51.158;7.354;2023-05-11T01:54:19;97727.38;;;13.61;100.00
45247;BME280;31529;51.158;7.354;2023-05-11T01:54:53;97730.03;;;13.61;100.00
45247;BME280;31529;51.158;7.354;2023-05-11T01:55:26;97728.16;;;13.62;100.00
45247;BME280;31529;51.158;7.354;2023-05-11T01:56:00;97725.97;;;13.64;100.00
45247;BME280;31529;51.158;7.354;2023-05-11T01:56:33;97726.28;;;13.62;100.00
45247;BME280;31529;51.158;7.354;2023-05-11T01:57:06;97727.53;;;13.65;100.00
45247;BME280;31529;51.158;7.354;2023-05-11T01:57:39;97719.50;;;13.65;100.00
45247;BME280;31529;51.158;7.354;2023-05-11T01:58:10;97723.78;;;13.66;100.00
45247;BME280;31529;51.158;7.354;2023-05-11T01:58:44;97723.78;;;13.66;100.00
45247;BME280;31529;51.158;7.354;2023-05-11T01:59:17;97729.13;;;13.66;100.00
45247;BME280;31529;51.158;7.354;2023-05-11T01:59:49;97724.56;;;13.66;100.00
45247;BME280;31529;51.158;7.354;2023-05-11T02:00:23;97726.13;;;13.67;100.00
45247;BME280;31529;51.158;7.354;2023-05-11T02:00:56;97724.25;;;13.68;100.00
45247;BME280;31529;51.158;7.354;2023-05-11T02:01:29;97631.41;;;13.09;100.00
45247;BME280;31529;51.158;7.354;2023-05-11T02:02:03;97719.19;;;13.66;100.00
45247;BME280;31529;51.158;7.354;2023-05-11T02:02:40;97715.41;;;13.67;100.00
45247;BME280;31529;51.158;7.354;2023-05-11T02:03:13;97724.56;;;13.66;100.00
45247;BME280;31529;51.158;7.354;2023-05-11T02:03:46;97723.78;;;13.66;100.00
45247;BME280;31529;51.158;7.354;2023-05-11T02:04:19;97722.19;;;13.65;100.00
45247;BME280;31529;51.158;7.354;2023-05-11T02:04:53;97728.66;;;13.64;100.00
45247;BME280;31529;51.158;7.354;2023-05-11T02:05:25;97727.53;;;13.65;100.00
45247;BME280;31529;51.158;7.354;2023-05-11T02:05:58;97727.53;;;13.65;100.00
45247;BME280;31529;51.158;7.354;2023-05-11T02:06:33;97735.28;;;13.66;100.00
45247;BME280;31529;51.158;7.354;2023-05-11T02:07:06;97722.97;;;13.65;100.00
45247;BME280;31529;51.158;7.354;2023-05-11T02:07:40;97732.59;;;13.66;100.00
45247;BME280;31529;51.158;7.354;2023-05-11T02:08:13;97729.13;;;13.66;100.00
45247;BME280;31529;51.158;7.354;2023-05-11T02:08:45;97735.28;;;13.66;100.00
45247;BME280;31529;51.158;7.354;2023-05-11T02:09:18;97726.13;;;13.67;100.00
45247;BME280;31529;51.158;7.354;2023-05-11T02:09:51;97728.31;;;13.65;100.00
45247;BME280;31529;51.158;7.354;2023-05-11T02:10:25;97736.06;;;13.67;100.00
45247;BME280;31529;51.158;7.354;2023-05-11T02:10:57;97726.94;;;13.68;100.00
45247;BME280;31529;51.158;7.354;2023-05-11T02:11:31;97736.06;;;13.67;100.00
45247;BME280;31529;51.158;7.354;2023-05-11T02:12:05;97728.31;;;13.65;100.00
45247;BME280;31529;51.158;7.354;2023-05-11T02:12:38;97723.78;;;13.66;100.00
45247;BME280;31529;51.158;7.354;2023-05-11T02:13:11;97723.78;;;13.66;100.00
45247;BME280;31529;51.158;7.354;2023-05-11T02:13:45;97725.34;;;13.67;100.00
45247;BME280;31529;51.158;7.354;2023-05-11T02:14:19;97719.97;;;13.67;100.00
45247;BME280;31529;51.158;7.354;2023-05-11T02:14:53;97729.91;;;13.66;100.00
45247;BME280;31529;51.158;7.354;2023-05-11T02:15:25;97720.75;;;13.67;100.00
45247;BME280;31529;51.158;7.354;2023-05-11T02:15:57;97718.06;;;13.67;100.00
45247;BME280;31529;51.158;7.354;2023-05-11T02:16:30;97726.13;;;13.67;100.00
45247;BME280;31529;51.158;7.354;2023-05-11T02:17:03;97727.72;;;13.69;100.00
45247;BME280;31529;51.158;7.354;2023-05-11T02:17:37;97726.13;;;13.67;100.00
45247;BME280;31529;51.158;7.354;2023-05-11T02:18:13;97722.66;;;13.67;100.00
45247;BME280;31529;51.158;7.354;2023-05-11T02:18:45;97720.75;;;13.67;100.00
45247;BME280;31529;51.158;7.354;2023-05-11T02:19:17;97723.44;;;13.67;100.00
45247;BME280;31529;51.158;7.354;2023-05-11T02:19:50;97718.06;;;13.67;100.00
45247;BME280;31529;51.158;7.354;2023-05-11T02:20:23;97723.91;;;13.70;100.00
45247;BME280;31529;51.158;7.354;2023-05-11T02:20:57;97722.34;;;13.69;100.00
45247;BME280;31529;51.158;7.354;2023-05-11T02:21:29;97719.38;;;13.70;100.00
45247;BME280;31529;51.158;7.354;2023-05-11T02:22:02;97718.56;;;13.70;100.00
45247;BME280;31529;51.158;7.354;2023-05-11T02:22:34;97719.38;;;13.70;100.00
45247;BME280;31529;51.158;7.354;2023-05-11T02:23:06;97728.97;;;13.71;100.00
45247;BME280;31529;51.158;7.354;2023-05-11T02:23:39;97723.31;;;13.73;100.00
45247;BME280;31529;51.158;7.354;2023-05-11T02:24:12;97728.69;;;13.73;100.00
45247;BME280;31529;51.158;7.354;2023-05-11T02:24:44;97723.31;;;13.73;100.00
45247;BME280;31529;51.158;7.354;2023-05-11T02:25:16;97717.94;;;13.73;100.00
45247;BME280;31529;51.158;7.354;2023-05-11T02:25:48;97724.91;;;13.74;100.00
45247;BME280;31529;51.158;7.354;2023-05-11T02:26:21;97723.63;;;13.71;100.00
45247;BME280;31529;51.158;7.354;2023-05-11T02:26:52;97729.78;;;13.72;100.00
45247;BME280;31529;51.158;7.354;2023-05-11T02:27:24;97720.94;;;13.71;100.00
45247;BME280;31529;51.158;7.354;2023-05-11T02:27:55;97726.59;;;13.70;100.00
45247;BME280;31529;51.158;7.354;2023-05-11T02:28:26;97724.72;;;13.70;100.00
45247;BME280;31529;51.158;7.354;2023-05-11T02:28:57;97717.00;;;13.69;100.00
45247;BME280;31529;51.158;7.354;2023-05-11T02:29:28;97721.56;;;13.68;100.00
45247;BME280;31529;51.158;7.354;2023-05-11T02:30:00;97721.88;;;13.66;100.00
45247;BME280;31529;51.158;7.354;2023-05-11T02:30:34;97721.88;;;13.66;100.00
45247;BME280;31529;51.158;7.354;2023-05-11T02:31:13;97721.88;;;13.66;100.00
45247;BME280;31529;51.158;7.354;2023-05-11T02:31:48;97712.25;;;13.65;100.00
45247;BME280;31529;51.158;7.354;2023-05-11T02:32:22;97721.09;;;13.66;100.00
45247;BME280;31529;51.158;7.354;2023-05-11T02:32:55;97724.56;;;13.66;100.00
45247;BME280;31529;51.158;7.354;2023-05-11T02:33:32;97719.97;;;13.67;100.00
45247;BME280;31529;51.158;7.354;2023-05-11T02:34:07;97718.41;;;13.66;100.00
45247;BME280;31529;51.158;7.354;2023-05-11T02:34:59;97719.97;;;13.67;100.00
45247;BME280;31529;51.158;7.354;2023-05-11T02:35:36;97726.13;;;13.67;100.00
45247;BME280;31529;51.158;7.354;2023-05-11T02:36:13;97719.19;;;13.66;100.00
45247;BME280;31529;51.158;7.354;2023-05-11T02:36:47;97717.00;;;13.69;100.00
45247;BME280;31529;51.158;7.354;2023-05-11T02:37:22;97722.34;;;13.69;100.00
45247;BME280;31529;51.158;7.354;2023-05-11T02:37:55;97725.03;;;13.69;100.00
45247;BME280;31529;51.158;7.354;2023-05-11T02:38:34;97722.34;;;13.69;100.00
45247;BME280;31529;51.158;7.354;2023-05-11T02:39:07;97717.00;;;13.69;100.00
45247;BME280;31529;51.158;7.354;2023-05-11T02:39:43;97716.50;;;13.66;100.00
45247;BME280;31529;51.158;7.354;2023-05-11T02:40:16;97722.66;;;13.67;100.00
45247;BME280;31529;51.158;7.354;2023-05-11T02:40:49;97721.88;;;13.66;100.00
45247;BME280;31529;51.158;7.354;2023-05-11T02:41:25;97717.59;;;13.65;100.00
45247;BME280;31529;51.158;7.354;2023-05-11T02:41:59;97724.56;;;13.66;100.00
45247;BME280;31529;51.158;7.354;2023-05-11T02:42:39;97721.09;;;13.66;100.00
45247;BME280;31529;51.158;7.354;2023-05-11T02:43:14;97720.28;;;13.65;100.00
45247;BME280;31529;51.158;7.354;2023-05-11T02:43:51;97718.41;;;13.66;100.00
45247;BME280;31529;51.158;7.354;2023-05-11T02:44:27;97715.72;;;13.66;100.00
45247;BME280;31529;51.158;7.354;2023-05-11T02:45:06;97720.28;;;13.65;100.00
45247;BME280;31529;51.158;7.354;2023-05-11T02:45:40;97713.06;;;13.66;100.00
45247;BME280;31529;51.158;7.354;2023-05-11T02:46:14;97719.19;;;13.66;100.00
45247;BME280;31529;51.158;7.354;2023-05-11T02:46:49;97715.72;;;13.66;100.00
45247;BME280;31529;51.158;7.354;2023-05-11T02:47:26;97716.50;;;13.66;100.00
45247;BME280;31529;51.158;7.354;2023-05-11T02:48:03;97715.41;;;13.67;100.00
45247;BME280;31529;51.158;7.354;2023-05-11T02:48:39;97710.84;;;13.68;100.00
45247;BME280;31529;51.158;7.354;2023-05-11T02:49:14;97710.84;;;13.68;100.00
45247;BME280;31529;51.158;7.354;2023-05-11T02:49:50;97716.03;;;13.64;100.00
45247;BME280;31529;51.158;7.354;2023-05-11T02:50:25;97716.66;;;13.61;100.00
45247;BME280;31529;51.158;7.354;2023-05-11T02:50:59;97650.34;;;13.13;100.00
45247;BME280;31529;51.158;7.354;2023-05-11T02:51:36;97720.44;;;13.60;100.00
45247;BME280;31529;51.158;7.354;2023-05-11T02:52:11;97721.53;;;13.59;100.00
45247;BME280;31529;51.158;7.354;2023-05-11T02:52:44;97716.66;;;13.61;100.00
45247;BME280;31529;51.158;7.354;2023-05-11T02:53:17;97713.47;;;13.59;100.00
45247;BME280;31529;51.158;7.354;2023-05-11T02:53:50;97713.47;;;13.59;100.00
45247;BME280;31529;51.158;7.354;2023-05-11T02:54:25;97710.97;;;13.63;100.00
45247;BME280;31529;51.158;7.354;2023-05-11T02:54:58;97713.34;;;13.64;100.00
45247;BME280;31529;51.158;7.354;2023-05-11T02:55:32;97717.59;;;13.65;100.00
45247;BME280;31529;51.158;7.354;2023-05-11T02:56:03;97708.00;;;13.64;100.00
45247;BME280;31529;51.158;7.354;2023-05-11T02:56:35;97715.25;;;13.64;100.00
45247;BME280;31529;51.158;7.354;2023-05-11T02:57:07;97714.44;;;13.63;100.00
45247;BME280;31529;51.158;7.354;2023-05-11T02:57:39;97711.75;;;13.63;100.00
45247;BME280;31529;51.158;7.354;2023-05-11T02:58:10;97712.88;;;13.62;100.00
45247;BME280;31529;51.158;7.354;2023-05-11T02:58:41;97709.38;;;13.62;100.00
45247;BME280;31529;51.158;7.354;2023-05-11T02:59:12;97716.66;;;13.61;100.00
45247;BME280;31529;51.158;7.354;2023-05-11T02:59:45;97713.97;;;13.61;100.00
45247;BME280;31529;51.158;7.354;2023-05-11T03:00:16;97713.19;;;13.61;100.00
45247;BME280;31529;51.158;7.354;2023-05-11T03:00:47;97715.06;;;13.60;100.00
45247;BME280;31529;51.158;7.354;2023-05-11T03:01:19;97706.56;;;13.58;100.00
45247;BME280;31529;51.158;7.354;2023-05-11T03:01:51;97711.91;;;13.58;100.00
45247;BME280;31529;51.158;7.354;2023-05-11T03:02:22;97711.09;;;13.58;100.00
45247;BME280;31529;51.158;7.354;2023-05-11T03:02:53;97721.03;;;13.57;100.00
45247;BME280;31529;51.158;7.354;2023-05-11T03:03:27;97714.91;;;13.57;100.00
45247;BME280;31529;51.158;7.354;2023-05-11T03:03:58;97717.09;;;13.55;100.00
45247;BME280;31529;51.158;7.354;2023-05-11T03:04:29;97718.97;;;13.54;100.00
45247;BME280;31529;51.158;7.354;2023-05-11T03:05:01;97715.19;;;13.55;100.00
45247;BME280;31529;51.158;7.354;2023-05-11T03:05:32;97717.88;;;13.55;100.00
45247;BME280;31529;51.158;7.354;2023-05-11T03:06:03;97711.75;;;13.55;100.00
45247;BME280;31529;51.158;7.354;2023-05-11T03:06:34;97717.88;;;13.55;100.00
45247;BME280;31529;51.158;7.354;2023-05-11T03:07:06;97716.78;;;13.56;100.00
45247;BME280;31529;51.158;7.354;2023-05-11T03:07:38;97721.03;;;13.57;100.00
45247;BME280;31529;51.158;7.354;2023-05-11T03:08:09;97714.91;;;13.57;100.00
45247;BME280;31529;51.158;7.354;2023-05-11T03:08:40;97719.16;;;13.58;100.00